sensor_id;sensor_type;location;lat;lon;timestamp;pressure;altitude;pressure_sealevel;temperature;humidity
5522;BME280;2783;48.730;8.006;2023-07-02T00:01:45;99531.16;;;19.87;100.00
5522;BME280;2783;48.730;8.006;2023-07-02T00:04:10;99540.22;;;19.86;100.00
5522;BME280;2783;48.730;8.006;2023-07-02T00:06:39;99533.47;;;19.80;100.00
5522;BME280;2783;48.730;8.006;2023-07-02T00:09:12;99532.72;;;19.78;100.00
5522;BME280;2783;48.730;8.006;2023-07-02T00:11:38;99533.34;;;19.82;100.00
5522;BME280;2783;48.730;8.006;2023-07-02T00:14:08;99537.88;;;19.81;100.00
5522;BME280;2783;48.730;8.006;2023-07-02T00:16:34;99539.19;;;19.76;100.00
5522;BME280;2783;48.730;8.006;2023-07-02T00:19:00;99537.25;;;19.78;100.00
5522;BME280;2783;48.730;8.006;2023-07-02T00:21:26;99540.06;;;19.76;100.00
5522;BME280;2783;48.730;8.006;2023-07-02T00:23:54;99540.94;;;19.77;100.00
5522;BME280;2783;48.730;8.006;2023-07-02T00:26:23;99538.13;;;19.78;100.00
5522;BME280;2783;48.730;8.006;2023-07-02T00:28:49;99543.28;;;19.81;100.00
5522;BME280;2783;48.730;8.006;2023-07-02T00:31:14;99539.59;;;19.82;100.00
5522;BME280;2783;48.730;8.006;2023-07-02T00:33:39;99535.94;;;19.83;100.00
5522;BME280;2783;48.730;8.006;2023-07-02T00:36:05;99539.59;;;19.82;100.00
5522;BME280;2783;48.730;8.006;2023-07-02T00:38:30;99535.94;;;19.83;100.00
5522;BME280;2783;48.730;8.006;2023-07-02T00:40:55;99537.63;;;19.84;100.00
5522;BME280;2783;48.730;8.006;2023-07-02T00:43:21;99533.22;;;19.83;100.00
5522;BME280;2783;48.730;8.006;2023-07-02T00:45:46;99543.28;;;19.81;100.00
5522;BME280;2783;48.730;8.006;2023-07-02T00:48:12;99547.81;;;19.81;100.00
5522;BME280;2783;48.730;8.006;2023-07-02T00:50:39;99545.22;;;19.79;100.00
5522;BME280;2783;48.730;8.006;2023-07-02T00:53:04;99542.41;;;19.81;100.00
5522;BME280;2783;48.730;8.006;2023-07-02T00:55:30;99536.16;;;19.80;100.00
5522;BME280;2783;48.730;8.006;2023-07-02T00:57:55;99536.03;;;19.82;100.00
5522;BME280;2783;48.730;8.006;2023-07-02T01:00:36;99543.91;;;19.85;100.00
5522;BME280;2783;48.730;8.006;2023-07-02T01:03:02;99540.44;;;19.83;100.00
5522;BME280;2783;48.730;8.006;2023-07-02T01:05:30;99547.44;;;19.85;100.00
5522;BME280;2783;48.730;8.006;2023-07-02T01:08:05;99542.28;;;19.82;100.00
5522;BME280;2783;48.730;8.006;2023-07-02T01:10:33;99541.66;;;19.79;100.00
5522;BME280;2783;48.730;8.006;2023-07-02T01:13:07;99550.88;;;19.76;100.00
5522;BME280;2783;48.730;8.006;2023-07-02T01:15:34;99553.81;;;19.73;100.00
5522;BME280;2783;48.730;8.006;2023-07-02T01:18:00;99548.16;;;19.76;100.00
5522;BME280;2783;48.730;8.006;2023-07-02T01:20:26;99556.25;;;19.76;100.00
5522;BME280;2783;48.730;8.006;2023-07-02T01:22:56;99558.97;;;19.76;100.00
5522;BME280;2783;48.730;8.006;2023-07-02T01:25:23;99554.78;;;19.72;100.00
5522;BME280;2783;48.730;8.006;2023-07-02T01:27:50;99559.97;;;19.75;100.00
5522;BME280;2783;48.730;8.006;2023-07-02T01:30:15;99565.34;;;19.75;100.00
5522;BME280;2783;48.730;8.006;2023-07-02T01:32:41;99574.66;;;19.71;100.00
5522;BME280;2783;48.730;8.006;2023-07-02T01:35:07;99573.06;;;19.69;100.00
5522;BME280;2783;48.730;8.006;2023-07-02T01:37:33;99569.34;;;19.58;100.00
5522;BME280;2783;48.730;8.006;2023-07-02T01:40:03;99579.66;;;19.41;100.00
5522;BME280;2783;48.730;8.006;2023-07-02T01:42:31;99578.09;;;19.26;100.00
5522;BME280;2783;48.730;8.006;2023-07-02T01:44:57;99578.78;;;19.17;100.00
5522;BME280;2783;48.730;8.006;2023-07-02T01:47:22;99577.97;;;19.04;100.00
5522;BME280;2783;48.730;8.006;2023-07-02T01:49:49;99575.00;;;18.96;100.00
5522;BME280;2783;48.730;8.006;2023-07-02T01:52:15;99584.38;;;18.90;100.00
5522;BME280;2783;48.730;8.006;2023-07-02T01:54:41;99585.78;;;18.83;100.00
5522;BME280;2783;48.730;8.006;2023-07-02T01:57:06;99594.09;;;18.80;100.00
5522;BME280;2783;48.730;8.006;2023-07-02T01:59:32;99594.09;;;18.80;100.00
5522;BME280;2783;48.730;8.006;2023-07-02T02:01:57;99598.56;;;18.81;100.00
5522;BME280;2783;48.730;8.006;2023-07-02T02:04:23;99590.34;;;18.83;100.00
5522;BME280;2783;48.730;8.006;2023-07-02T02:06:48;99602.84;;;18.84;100.00
5522;BME280;2783;48.730;8.006;2023-07-02T02:09:13;99602.72;;;18.85;100.00
5522;BME280;2783;48.730;8.006;2023-07-02T02:11:41;99598.56;;;18.81;100.00
5522;BME280;2783;48.730;8.006;2023-07-02T02:14:07;99609.53;;;18.78;100.00
5522;BME280;2783;48.730;8.006;2023-07-02T02:16:32;99609.34;;;18.69;100.00
5522;BME280;2783;48.730;8.006;2023-07-02T02:19:01;99607.44;;;18.58;100.00
5522;BME280;2783;48.730;8.006;2023-07-02T02:21:26;99612.47;;;18.63;100.00
5522;BME280;2783;48.730;8.006;2023-07-02T02:23:52;99611.06;;;18.70;100.00
5522;BME280;2783;48.730;8.006;2023-07-02T02:26:18;99614.41;;;18.61;100.00
5522;BME280;2783;48.730;8.006;2023-07-02T02:28:43;99619.03;;;18.59;100.00
5522;BME280;2783;48.730;8.006;2023-07-02T02:31:09;99618.94;;;18.60;100.00
5522;BME280;2783;48.730;8.006;2023-07-02T02:33:34;99599.34;;;18.58;100.00
5522;BME280;2783;48.730;8.006;2023-07-02T02:36:01;99607.44;;;18.58;100.00
5522;BME280;2783;48.730;8.006;2023-07-02T02:38:27;99614.75;;;18.56;100.00
5522;BME280;2783;48.730;8.006;2023-07-02T02:40:52;99602.69;;;18.49;100.00
5522;BME280;2783;48.730;8.006;2023-07-02T02:43:18;99605.03;;;18.54;100.00
5522;BME280;2783;48.730;8.006;2023-07-02T02:45:43;99604.81;;;18.57;100.00
5522;BME280;2783;48.730;8.006;2023-07-02T02:48:08;99603.97;;;18.56;100.00
5522;BME280;2783;48.730;8.006;2023-07-02T02:50:34;99602.47;;;18.52;100.00
5522;BME280;2783;48.730;8.006;2023-07-02T02:52:59;99602.78;;;18.48;100.00
5522;BME280;2783;48.730;8.006;2023-07-02T02:55:25;99608.94;;;18.50;100.00
5522;BME280;2783;48.730;8.006;2023-07-02T02:57:51;99599.75;;;18.52;100.00
5522;BME280;2783;48.730;8.006;2023-07-02T03:00:16;99604.63;;;18.47;100.00
5522;BME280;2783;48.730;8.006;2023-07-02T03:02:42;99608.94;;;18.50;100.00
5522;BME280;2783;48.730;8.006;2023-07-02T03:05:08;99596.97;;;18.54;100.00
5522;BME280;2783;48.730;8.006;2023-07-02T03:07:33;99603.44;;;18.51;100.00
5522;BME280;2783;48.730;8.006;2023-07-02T03:09:59;99595.59;;;18.48;100.00
5522;BME280;2783;48.730;8.006;2023-07-02T03:12:27;99606.78;;;18.55;100.00
5522;BME280;2783;48.730;8.006;2023-07-02T03:14:52;99609.59;;;18.53;100.00
5522;BME280;2783;48.730;8.006;2023-07-02T03:17:22;99604.38;;;18.50;100.00
5522;BME280;2783;48.730;8.006;2023-07-02T03:19:48;99610.44;;;18.54;100.00
5522;BME280;2783;48.730;8.006;2023-07-02T03:22:13;99606.25;;;18.50;100.00
5522;BME280;2783;48.730;8.006;2023-07-02T03:24:39;99615.09;;;18.52;100.00
5522;BME280;2783;48.730;8.006;2023-07-02T03:27:05;99617.84;;;18.50;100.00
5522;BME280;2783;48.730;8.006;2023-07-02T03:29:34;99623.91;;;18.41;100.00
5522;BME280;2783;48.730;8.006;2023-07-02T03:32:01;99619.50;;;18.40;100.00
5522;BME280;2783;48.730;8.006;2023-07-02T03:34:26;99631.56;;;18.47;100.00
5522;BME280;2783;48.730;8.006;2023-07-02T03:36:52;99631.44;;;18.49;100.00
5522;BME280;2783;48.730;8.006;2023-07-02T03:39:17;99633.06;;;18.51;100.00
5522;BME280;2783;48.730;8.006;2023-07-02T03:41:43;99646.31;;;18.54;100.00
5522;BME280;2783;48.730;8.006;2023-07-02T03:44:09;99643.19;;;18.48;100.00
5522;BME280;2783;48.730;8.006;2023-07-02T03:46:34;99648.25;;;18.40;100.00
5522;BME280;2783;48.730;8.006;2023-07-02T03:49:00;99647.69;;;18.34;100.00
5522;BME280;2783;48.730;8.006;2023-07-02T03:51:25;99648.25;;;18.40;100.00
5522;BME280;2783;48.730;8.006;2023-07-02T03:53:51;99645.00;;;18.34;100.00
5522;BME280;2783;48.730;8.006;2023-07-02T03:56:16;99651.97;;;18.37;100.00
5522;BME280;2783;48.730;8.006;2023-07-02T03:58:42;99650.75;;;18.43;100.00
5522;BME280;2783;48.730;8.006;2023-07-02T04:01:07;99656.34;;;18.40;100.00
5522;BME280;2783;48.730;8.006;2023-07-02T04:03:33;99654.41;;;18.42;100.00
5522;BME280;2783;48.730;8.006;2023-07-02T04:05:58;99654.41;;;18.42;100.00
5522;BME280;2783;48.730;8.006;2023-07-02T04:08:24;99653.31;;;18.44;100.00
5522;BME280;2783;48.730;8.006;2023-07-02T04:10:54;99660.22;;;18.48;100.00
5522;BME280;2783;48.730;8.006;2023-07-02T04:13:19;99660.22;;;18.48;100.00
5522;BME280;2783;48.730;8.006;2023-07-02T04:15:45;99666.44;;;18.49;100.00
5522;BME280;2783;48.730;8.006;2023-07-02T04:18:10;99669.16;;;18.49;100.00
5522;BME280;2783;48.730;8.006;2023-07-02T04:20:36;99672.28;;;18.43;100.00
5522;BME280;2783;48.730;8.006;2023-07-02T04:23:04;99677.66;;;18.43;100.00
5522;BME280;2783;48.730;8.006;2023-07-02T04:25:29;99683.59;;;18.48;100.00
5522;BME280;2783;48.730;8.006;2023-07-02T04:27:55;99688.13;;;18.47;100.00
5522;BME280;2783;48.730;8.006;2023-07-02T04:30:21;99689.31;;;18.56;100.00
5522;BME280;2783;48.730;8.006;2023-07-02T04:32:47;99690.28;;;18.67;100.00
5522;BME280;2783;48.730;8.006;2023-07-02T04:35:12;99693.16;;;18.77;100.00
5522;BME280;2783;48.730;8.006;2023-07-02T04:37:38;99693.72;;;18.82;100.00
5522;BME280;2783;48.730;8.006;2023-07-02T04:40:06;99691.78;;;18.84;100.00
5522;BME280;2783;48.730;8.006;2023-07-02T04:42:41;99696.72;;;18.90;100.00
5522;BME280;2783;48.730;8.006;2023-07-02T04:45:13;99697.25;;;18.95;100.00
5522;BME280;2783;48.730;8.006;2023-07-02T04:47:43;99700.28;;;18.90;100.00
5522;BME280;2783;48.730;8.006;2023-07-02T04:50:09;99699.53;;;19.01;100.00
5522;BME280;2783;48.730;8.006;2023-07-02T04:52:35;99700.66;;;19.09;100.00
5522;BME280;2783;48.730;8.006;2023-07-02T04:55:02;99700.59;;;19.11;98.92
5522;BME280;2783;48.730;8.006;2023-07-02T04:57:27;99696.78;;;19.13;97.55
5522;BME280;2783;48.730;8.006;2023-07-02T04:59:53;99696.16;;;19.10;96.93
5522;BME280;2783;48.730;8.006;2023-07-02T05:02:19;99713.16;;;19.23;96.75
5522;BME280;2783;48.730;8.006;2023-07-02T05:04:45;99702.69;;;19.31;95.34
5522;BME280;2783;48.730;8.006;2023-07-02T05:07:10;99722.41;;;19.44;95.25
5522;BME280;2783;48.730;8.006;2023-07-02T05:09:36;99723.69;;;19.51;94.92
5522;BME280;2783;48.730;8.006;2023-07-02T05:12:01;99719.47;;;19.59;94.00
5522;BME280;2783;48.730;8.006;2023-07-02T05:14:26;99716.66;;;19.61;93.72
5522;BME280;2783;48.730;8.006;2023-07-02T05:16:52;99727.19;;;19.64;92.42
5522;BME280;2783;48.730;8.006;2023-07-02T05:19:18;99727.59;;;19.71;91.49
5522;BME280;2783;48.730;8.006;2023-07-02T05:21:43;99728.00;;;19.77;90.96
5522;BME280;2783;48.730;8.006;2023-07-02T05:24:08;99730.28;;;19.83;89.26
5522;BME280;2783;48.730;8.006;2023-07-02T05:26:34;99729.81;;;19.89;89.87
5522;BME280;2783;48.730;8.006;2023-07-02T05:29:01;99727.84;;;19.91;88.00
5522;BME280;2783;48.730;8.006;2023-07-02T05:31:26;99739.69;;;20.01;88.26
5522;BME280;2783;48.730;8.006;2023-07-02T05:33:55;99741.16;;;20.05;87.66
5522;BME280;2783;48.730;8.006;2023-07-02T05:36:21;99747.63;;;20.15;86.45
5522;BME280;2783;48.730;8.006;2023-07-02T05:38:46;99743.97;;;20.16;85.39
5522;BME280;2783;48.730;8.006;2023-07-02T05:41:20;99741.16;;;20.18;85.33
5522;BME280;2783;48.730;8.006;2023-07-02T05:43:47;99746.84;;;20.37;85.60
5522;BME280;2783;48.730;8.006;2023-07-02T05:46:12;99744.41;;;20.45;83.59
5522;BME280;2783;48.730;8.006;2023-07-02T05:48:39;99739.66;;;20.48;82.65
5522;BME280;2783;48.730;8.006;2023-07-02T05:51:05;99747.31;;;20.65;81.40
5522;BME280;2783;48.730;8.006;2023-07-02T05:53:30;99747.06;;;20.68;80.68
5522;BME280;2783;48.730;8.006;2023-07-02T05:55:56;99753.19;;;20.59;79.16
5522;BME280;2783;48.730;8.006;2023-07-02T05:58:21;99752.72;;;20.65;79.64
5522;BME280;2783;48.730;8.006;2023-07-02T06:00:47;99755.69;;;20.73;78.22
5522;BME280;2783;48.730;8.006;2023-07-02T06:03:16;99763.56;;;20.87;78.14
5522;BME280;2783;48.730;8.006;2023-07-02T06:05:48;99764.13;;;21.04;78.47
5522;BME280;2783;48.730;8.006;2023-07-02T06:08:18;99763.38;;;21.13;76.28
5522;BME280;2783;48.730;8.006;2023-07-02T06:10:45;99765.84;;;21.16;75.07
5522;BME280;2783;48.730;8.006;2023-07-02T06:13:11;99771.75;;;21.21;74.97
5522;BME280;2783;48.730;8.006;2023-07-02T06:15:37;99777.41;;;21.29;74.04
5522;BME280;2783;48.730;8.006;2023-07-02T06:18:02;99775.94;;;21.36;73.56
5522;BME280;2783;48.730;8.006;2023-07-02T06:20:27;99775.53;;;21.40;73.43
5522;BME280;2783;48.730;8.006;2023-07-02T06:22:53;99778.88;;;21.44;73.41
5522;BME280;2783;48.730;8.006;2023-07-02T06:25:18;99783.81;;;21.50;73.73
5522;BME280;2783;48.730;8.006;2023-07-02T06:27:44;99790.56;;;21.44;73.11
5522;BME280;2783;48.730;8.006;2023-07-02T06:30:09;99791.66;;;21.64;74.29
5522;BME280;2783;48.730;8.006;2023-07-02T06:32:35;99787.94;;;21.98;74.03
5522;BME280;2783;48.730;8.006;2023-07-02T06:35:00;99788.66;;;22.00;70.40
5522;BME280;2783;48.730;8.006;2023-07-02T06:37:26;99773.91;;;22.04;70.66
5522;BME280;2783;48.730;8.006;2023-07-02T06:39:51;99779.13;;;22.16;71.41
5522;BME280;2783;48.730;8.006;2023-07-02T06:42:17;99784.09;;;22.43;70.77
5522;BME280;2783;48.730;8.006;2023-07-02T06:44:42;99781.94;;;22.58;70.41
5522;BME280;2783;48.730;8.006;2023-07-02T06:47:08;99789.66;;;22.73;69.16
5522;BME280;2783;48.730;8.006;2023-07-02T06:49:34;99780.50;;;22.74;66.79
5522;BME280;2783;48.730;8.006;2023-07-02T06:51:59;99778.91;;;22.92;65.00
5522;BME280;2783;48.730;8.006;2023-07-02T06:54:27;99775.84;;;23.06;65.87
5522;BME280;2783;48.730;8.006;2023-07-02T06:56:53;99777.03;;;23.13;64.86
5522;BME280;2783;48.730;8.006;2023-07-02T06:59:21;99791.69;;;23.01;60.81
5522;BME280;2783;48.730;8.006;2023-07-02T07:01:47;99783.47;;;23.12;62.19
5522;BME280;2783;48.730;8.006;2023-07-02T07:04:13;99791.34;;;23.15;60.52
5522;BME280;2783;48.730;8.006;2023-07-02T07:06:38;99788.44;;;23.07;61.56
5522;BME280;2783;48.730;8.006;2023-07-02T07:09:04;99797.94;;;23.22;61.71
5522;BME280;2783;48.730;8.006;2023-07-02T07:11:29;99792.31;;;23.35;61.71
5522;BME280;2783;48.730;8.006;2023-07-02T07:13:55;99803.38;;;23.53;61.23
5522;BME280;2783;48.730;8.006;2023-07-02T07:16:21;99788.88;;;23.33;57.73
5522;BME280;2783;48.730;8.006;2023-07-02T07:18:46;99791.84;;;23.51;60.56
5522;BME280;2783;48.730;8.006;2023-07-02T07:21:12;99794.75;;;23.68;60.96
5522;BME280;2783;48.730;8.006;2023-07-02T07:23:39;99799.44;;;24.06;57.58
5522;BME280;2783;48.730;8.006;2023-07-02T07:26:04;99801.78;;;24.39;58.37
5522;BME280;2783;48.730;8.006;2023-07-02T07:28:29;99791.63;;;24.41;54.73
5522;BME280;2783;48.730;8.006;2023-07-02T07:30:55;99791.19;;;24.36;54.96
5522;BME280;2783;48.730;8.006;2023-07-02T07:33:20;99789.78;;;24.41;54.80
5522;BME280;2783;48.730;8.006;2023-07-02T07:35:45;99788.63;;;24.34;53.99
5522;BME280;2783;48.730;8.006;2023-07-02T07:38:13;99778.75;;;24.72;54.32
5522;BME280;2783;48.730;8.006;2023-07-02T07:40:39;99785.03;;;24.91;54.02
5522;BME280;2783;48.730;8.006;2023-07-02T07:43:04;99791.88;;;25.05;53.64
5522;BME280;2783;48.730;8.006;2023-07-02T07:45:30;99796.50;;;24.95;53.45
5522;BME280;2783;48.730;8.006;2023-07-02T07:47:55;99785.91;;;24.92;53.62
5522;BME280;2783;48.730;8.006;2023-07-02T07:50:21;99787.16;;;25.07;53.45
5522;BME280;2783;48.730;8.006;2023-07-02T07:52:47;99793.78;;;25.50;53.02
5522;BME280;2783;48.730;8.006;2023-07-02T07:55:13;99781.97;;;25.86;52.64
5522;BME280;2783;48.730;8.006;2023-07-02T07:57:38;99793.72;;;25.69;51.24
5522;BME280;2783;48.730;8.006;2023-07-02T08:00:05;99787.16;;;25.89;51.73
5522;BME280;2783;48.730;8.006;2023-07-02T08:02:35;99788.75;;;25.55;51.89
5522;BME280;2783;48.730;8.006;2023-07-02T08:05:00;99779.69;;;25.18;51.53
5522;BME280;2783;48.730;8.006;2023-07-02T08:07:26;99785.44;;;24.96;53.02
5522;BME280;2783;48.730;8.006;2023-07-02T08:09:51;99781.34;;;24.83;53.26
5522;BME280;2783;48.730;8.006;2023-07-02T08:12:17;99773.47;;;24.89;54.04
5522;BME280;2783;48.730;8.006;2023-07-02T08:14:42;99776.47;;;25.32;53.29
5522;BME280;2783;48.730;8.006;2023-07-02T08:17:07;99770.16;;;25.68;51.95
5522;BME280;2783;48.730;8.006;2023-07-02T08:19:33;99771.28;;;25.75;52.36
5522;BME280;2783;48.730;8.006;2023-07-02T08:21:58;99773.50;;;26.17;52.25
5522;BME280;2783;48.730;8.006;2023-07-02T08:24:24;99774.16;;;26.81;49.01
5522;BME280;2783;48.730;8.006;2023-07-02T08:26:49;99773.75;;;27.19;48.07
5522;BME280;2783;48.730;8.006;2023-07-02T08:29:15;99775.34;;;27.55;46.62
5522;BME280;2783;48.730;8.006;2023-07-02T08:31:41;99770.63;;;27.65;47.70
5522;BME280;2783;48.730;8.006;2023-07-02T08:34:08;99770.16;;;27.78;45.68
5522;BME280;2783;48.730;8.006;2023-07-02T08:36:34;99772.34;;;28.08;45.82
5522;BME280;2783;48.730;8.006;2023-07-02T08:38:59;99773.25;;;28.24;45.58
5522;BME280;2783;48.730;8.006;2023-07-02T08:41:24;99789.31;;;28.35;45.91
5522;BME280;2783;48.730;8.006;2023-07-02T08:43:50;99780.56;;;27.74;44.88
5522;BME280;2783;48.730;8.006;2023-07-02T08:46:17;99772.44;;;27.57;45.32
5522;BME280;2783;48.730;8.006;2023-07-02T08:48:42;99781.81;;;27.46;47.04
5522;BME280;2783;48.730;8.006;2023-07-02T08:51:08;99773.16;;;27.92;45.94
5522;BME280;2783;48.730;8.006;2023-07-02T08:53:34;99781.00;;;28.45;47.30
5522;BME280;2783;48.730;8.006;2023-07-02T08:56:00;99774.00;;;28.59;45.04
5522;BME280;2783;48.730;8.006;2023-07-02T08:58:26;99775.38;;;28.71;44.39
5522;BME280;2783;48.730;8.006;2023-07-02T09:01:09;99769.41;;;29.15;42.48
5522;BME280;2783;48.730;8.006;2023-07-02T09:03:35;99776.38;;;29.34;41.99
5522;BME280;2783;48.730;8.006;2023-07-02T09:06:05;99773.13;;;29.06;40.21
5522;BME280;2783;48.730;8.006;2023-07-02T09:08:31;99771.78;;;29.02;41.48
5522;BME280;2783;48.730;8.006;2023-07-02T09:11:11;99768.53;;;28.91;40.42
5522;BME280;2783;48.730;8.006;2023-07-02T09:18:58;99773.41;;;29.51;42.45
5522;BME280;2783;48.730;8.006;2023-07-02T09:21:37;99771.53;;;29.52;41.26
5522;BME280;2783;48.730;8.006;2023-07-02T09:24:12;99770.25;;;29.16;40.36
5522;BME280;2783;48.730;8.006;2023-07-02T09:26:37;99763.41;;;28.96;42.34
5522;BME280;2783;48.730;8.006;2023-07-02T09:29:03;99770.59;;;28.81;42.33
5522;BME280;2783;48.730;8.006;2023-07-02T09:31:28;99763.22;;;29.21;40.86
5522;BME280;2783;48.730;8.006;2023-07-02T09:34:01;99773.72;;;29.73;40.65
5522;BME280;2783;48.730;8.006;2023-07-02T09:36:26;99768.09;;;29.66;42.01
5522;BME280;2783;48.730;8.006;2023-07-02T09:38:52;99763.88;;;29.31;41.37
5522;BME280;2783;48.730;8.006;2023-07-02T09:41:17;99762.03;;;28.68;41.96
5522;BME280;2783;48.730;8.006;2023-07-02T09:43:43;99767.78;;;28.24;42.89
5522;BME280;2783;48.730;8.006;2023-07-02T09:46:08;99769.13;;;28.20;42.14
5522;BME280;2783;48.730;8.006;2023-07-02T09:48:35;99755.59;;;28.11;43.11
5522;BME280;2783;48.730;8.006;2023-07-02T09:51:01;99754.97;;;28.41;41.95
5522;BME280;2783;48.730;8.006;2023-07-02T09:53:28;99754.34;;;28.63;42.42
5522;BME280;2783;48.730;8.006;2023-07-02T09:55:54;99747.97;;;29.03;41.28
5522;BME280;2783;48.730;8.006;2023-07-02T09:58:20;99757.72;;;29.29;40.81
5522;BME280;2783;48.730;8.006;2023-07-02T10:00:45;99756.41;;;29.72;40.28
5522;BME280;2783;48.730;8.006;2023-07-02T10:03:11;99759.19;;;29.48;39.50
5522;BME280;2783;48.730;8.006;2023-07-02T10:05:36;99763.91;;;29.15;40.49
5522;BME280;2783;48.730;8.006;2023-07-02T10:08:20;99763.03;;;28.67;40.13
5522;BME280;2783;48.730;8.006;2023-07-02T10:10:48;99754.09;;;28.32;40.91
5522;BME280;2783;48.730;8.006;2023-07-02T10:13:13;99763.78;;;28.03;41.04
5522;BME280;2783;48.730;8.006;2023-07-02T10:15:39;99752.34;;;27.66;41.75
5522;BME280;2783;48.730;8.006;2023-07-02T10:18:05;99749.66;;;28.15;39.21
5522;BME280;2783;48.730;8.006;2023-07-02T10:20:39;99752.44;;;28.72;40.28
5522;BME280;2783;48.730;8.006;2023-07-02T10:23:06;99749.69;;;28.72;39.98
5522;BME280;2783;48.730;8.006;2023-07-02T10:25:34;99743.88;;;28.51;38.43
5522;BME280;2783;48.730;8.006;2023-07-02T10:28:01;99753.81;;;28.68;39.31
5522;BME280;2783;48.730;8.006;2023-07-02T10:30:36;99752.47;;;28.80;40.03
5522;BME280;2783;48.730;8.006;2023-07-02T10:33:09;99753.13;;;28.90;39.06
5522;BME280;2783;48.730;8.006;2023-07-02T10:35:34;99757.50;;;29.47;39.93
5522;BME280;2783;48.730;8.006;2023-07-02T10:38:00;99756.19;;;30.12;37.27
5522;BME280;2783;48.730;8.006;2023-07-02T10:40:26;99750.25;;;29.70;37.04
5522;BME280;2783;48.730;8.006;2023-07-02T10:42:52;99749.31;;;29.39;37.88
5522;BME280;2783;48.730;8.006;2023-07-02T10:45:19;99742.53;;;29.57;37.54
5522;BME280;2783;48.730;8.006;2023-07-02T10:47:44;99751.06;;;30.09;36.91
5522;BME280;2783;48.730;8.006;2023-07-02T10:50:15;99752.41;;;30.66;35.50
5522;BME280;2783;48.730;8.006;2023-07-02T10:52:41;99749.25;;;30.55;37.14
5522;BME280;2783;48.730;8.006;2023-07-02T10:55:06;99749.00;;;29.81;36.49
5522;BME280;2783;48.730;8.006;2023-07-02T10:57:32;99746.44;;;29.00;36.87
5522;BME280;2783;48.730;8.006;2023-07-02T11:00:05;99740.41;;;28.16;38.13
5522;BME280;2783;48.730;8.006;2023-07-02T11:02:39;99736.69;;;28.74;40.70
5522;BME280;2783;48.730;8.006;2023-07-02T11:05:06;99746.25;;;29.34;38.94
5522;BME280;2783;48.730;8.006;2023-07-02T11:07:32;99749.47;;;29.29;37.82
5522;BME280;2783;48.730;8.006;2023-07-02T11:09:58;99746.47;;;29.71;36.84
5522;BME280;2783;48.730;8.006;2023-07-02T11:12:30;99742.72;;;29.09;36.99
5522;BME280;2783;48.730;8.006;2023-07-02T11:15:08;99736.38;;;28.93;37.86
5522;BME280;2783;48.730;8.006;2023-07-02T11:17:34;99739.09;;;28.85;37.39
5522;BME280;2783;48.730;8.006;2023-07-02T11:19:59;99730.53;;;29.12;36.69
5522;BME280;2783;48.730;8.006;2023-07-02T11:22:35;99742.16;;;29.77;36.79
5522;BME280;2783;48.730;8.006;2023-07-02T11:25:15;99739.91;;;30.41;37.37
5522;BME280;2783;48.730;8.006;2023-07-02T11:27:41;99735.13;;;31.03;34.83
5522;BME280;2783;48.730;8.006;2023-07-02T11:30:07;99727.06;;;31.02;34.46
5522;BME280;2783;48.730;8.006;2023-07-02T11:35:14;99718.16;;;31.14;34.61
5522;BME280;2783;48.730;8.006;2023-07-02T11:37:41;99717.19;;;30.70;33.78
5522;BME280;2783;48.730;8.006;2023-07-02T11:40:07;99715.31;;;30.93;33.76
5522;BME280;2783;48.730;8.006;2023-07-02T11:42:32;99721.53;;;31.68;33.35
5522;BME280;2783;48.730;8.006;2023-07-02T11:44:58;99720.81;;;32.45;32.34
5522;BME280;2783;48.730;8.006;2023-07-02T11:47:23;99723.53;;;32.87;31.63
5522;BME280;2783;48.730;8.006;2023-07-02T11:49:50;99718.56;;;32.76;31.80
5522;BME280;2783;48.730;8.006;2023-07-02T11:52:15;99724.41;;;32.67;30.90
5522;BME280;2783;48.730;8.006;2023-07-02T11:54:41;99715.44;;;31.87;32.06
5522;BME280;2783;48.730;8.006;2023-07-02T11:57:06;99714.56;;;32.01;31.81
5522;BME280;2783;48.730;8.006;2023-07-02T11:59:32;99711.47;;;31.89;32.84
5522;BME280;2783;48.730;8.006;2023-07-02T12:01:57;99715.34;;;31.80;31.41
5522;BME280;2783;48.730;8.006;2023-07-02T12:04:23;99706.75;;;32.19;33.14
5522;BME280;2783;48.730;8.006;2023-07-02T12:06:48;99705.69;;;32.62;30.80
5522;BME280;2783;48.730;8.006;2023-07-02T12:09:14;99703.06;;;32.96;31.02
5522;BME280;2783;48.730;8.006;2023-07-02T12:11:39;99693.19;;;33.08;31.21
5522;BME280;2783;48.730;8.006;2023-07-02T12:14:05;99702.94;;;33.38;30.77
5522;BME280;2783;48.730;8.006;2023-07-02T12:16:30;99695.06;;;33.01;30.51
5522;BME280;2783;48.730;8.006;2023-07-02T12:18:55;99692.25;;;32.95;29.89
5522;BME280;2783;48.730;8.006;2023-07-02T12:21:21;99693.75;;;32.34;31.44
5522;BME280;2783;48.730;8.006;2023-07-02T12:23:46;99690.97;;;32.34;30.65
5522;BME280;2783;48.730;8.006;2023-07-02T12:26:12;99682.94;;;32.75;30.53
5522;BME280;2783;48.730;8.006;2023-07-02T12:28:37;99689.47;;;33.22;31.21
5522;BME280;2783;48.730;8.006;2023-07-02T12:31:02;99688.22;;;33.59;30.14
5522;BME280;2783;48.730;8.006;2023-07-02T12:33:28;99695.88;;;33.02;29.47
5522;BME280;2783;48.730;8.006;2023-07-02T12:35:53;99703.28;;;32.95;29.90
5522;BME280;2783;48.730;8.006;2023-07-02T12:38:19;99693.53;;;32.99;30.95
5522;BME280;2783;48.730;8.006;2023-07-02T12:40:44;99688.53;;;33.09;29.24
5522;BME280;2783;48.730;8.006;2023-07-02T12:43:09;99689.03;;;33.53;30.01
5522;BME280;2783;48.730;8.006;2023-07-02T12:45:35;99686.31;;;33.60;29.51
5522;BME280;2783;48.730;8.006;2023-07-02T12:48:00;99690.28;;;33.44;30.41
5522;BME280;2783;48.730;8.006;2023-07-02T12:50:26;99685.19;;;33.48;30.24
5522;BME280;2783;48.730;8.006;2023-07-02T12:52:51;99687.91;;;33.82;30.28
5522;BME280;2783;48.730;8.006;2023-07-02T12:55:16;99680.53;;;33.55;27.21
5522;BME280;2783;48.730;8.006;2023-07-02T12:57:42;99686.22;;;33.12;28.02
5522;BME280;2783;48.730;8.006;2023-07-02T13:00:08;99678.44;;;32.46;30.28
5522;BME280;2783;48.730;8.006;2023-07-02T13:02:34;99681.09;;;32.19;30.98
5522;BME280;2783;48.730;8.006;2023-07-02T13:04:59;99680.78;;;32.28;30.16
5522;BME280;2783;48.730;8.006;2023-07-02T13:07:25;99672.97;;;32.95;30.18
5522;BME280;2783;48.730;8.006;2023-07-02T13:09:51;99672.94;;;33.22;29.37
5522;BME280;2783;48.730;8.006;2023-07-02T13:12:16;99673.88;;;33.77;29.70
5522;BME280;2783;48.730;8.006;2023-07-02T13:14:42;99672.56;;;33.73;29.26
5522;BME280;2783;48.730;8.006;2023-07-02T13:17:08;99672.53;;;33.66;29.15
5522;BME280;2783;48.730;8.006;2023-07-02T13:19:33;99666.41;;;33.36;28.00
5522;BME280;2783;48.730;8.006;2023-07-02T13:22:01;99659.00;;;32.12;28.88